Terminal Aerodrome Forecast
Issued by NWS

Home | Current Version | Previous Version | Text Only | Print | Product List | Glossary On
Versions: 1 2 3 4 5 6 7 8 9 10 11 12 13
000
FTUS45 KREV 042356 AAA
TAFRNO
TAF AMD
KRNO 042356Z 0500/0524 14010KT P6SM VCSH BKN090 OVC180
     FM050030 18010G25KT 5SM -SHRA BKN040
     FM050100 32011G18KT P6SM VCSH BKN070 OVC100
     FM051400 34006KT P6SM -SHRA VCTS BKN050CB OVC070
     FM051900 31010KT 4SM -TSRA BKN040CB=

USA.gov is the U.S. government's official web portal to all federal, state and local government web resources and services.